LGRX/GPA METAR and TAF weather

Enter ICAO airport designator
Station Type Date Time Source
LGRX METAR 2019/10/14 06:50 UTC NOAA

LGRX 140650Z 00000KT CAVOK 20/18 Q1021


Station Type Date Time Source
LGRX Decoded METAR 2019/10/14 06:50 UTC NOAA

Araxos Airport , Greece (LGRX) 38-09N 021-25E 12M
Oct 14, 2019 - 02:50 AM EDT / 2019.10.14 0650 UTC
Wind: Calm:0
Visibility: greater than 7 mile(s):0
Temperature: 68 F (20 C)
Dew Point: 64 F (18 C)
Relative Humidity: 88%
Pressure (altimeter): 30.15 in. Hg (1021 hPa)
ob: LGRX 140650Z 00000KT CAVOK 20/18 Q1021
cycle: 7

Station Type Date Time Source
LGRX TAF 2017/09/23 18:36 UTC NOAA

TAF TAF LGRX 231700Z 2318/2406 33010KT 9999 FEW025
BECMG 2322/2324 VRB03KT

Example: see airport list